createdAt,value
2022-09-07T00:00:10.924Z,73.27
2022-09-07T00:02:40.170Z,73.12
2022-09-07T00:05:08.192Z,73.25
2022-09-07T00:07:35.735Z,73.18
2022-09-07T00:10:03.156Z,73.14
2022-09-07T00:12:30.504Z,73.15
2022-09-07T00:14:57.885Z,73.08
2022-09-07T00:17:25.313Z,73.10
2022-09-07T00:19:52.638Z,73.03
2022-09-07T00:22:20.010Z,73.05
2022-09-07T00:24:47.257Z,73.01
2022-09-07T00:27:14.537Z,73.00
2022-09-07T00:29:42.080Z,73.18
2022-09-07T00:32:09.453Z,72.98
2022-09-07T00:34:36.918Z,73.21
2022-09-07T00:37:04.368Z,73.12
2022-09-07T00:39:32.013Z,73.04
2022-09-07T00:42:00.105Z,73.11
2022-09-07T00:44:58.675Z,73.29
2022-09-07T00:47:29.794Z,73.35
2022-09-07T00:50:00.334Z,73.43
2022-09-07T00:52:28.618Z,73.49
2022-09-07T00:54:59.491Z,73.62
2022-09-07T00:57:28.901Z,73.76
2022-09-07T00:59:57.208Z,74.02
2022-09-07T01:02:25.713Z,73.93
2022-09-07T01:04:57.031Z,74.07
2022-09-07T01:07:24.483Z,74.16
2022-09-07T01:09:52.348Z,74.25
2022-09-07T01:12:19.748Z,74.42
2022-09-07T01:14:49.914Z,74.23
2022-09-07T01:17:42.430Z,74.21
2022-09-07T01:20:25.699Z,74.08
2022-09-07T01:23:25.840Z,74.23
2022-09-07T01:26:31.817Z,74.17
2022-09-07T01:29:24.492Z,74.13
2022-09-07T01:32:07.772Z,74.12
2022-09-07T01:34:36.971Z,74.10
2022-09-07T01:37:16.359Z,74.40
2022-09-07T01:39:47.364Z,74.23
2022-09-07T01:42:17.661Z,74.67
2022-09-07T01:44:52.093Z,74.61
2022-09-07T01:47:26.429Z,74.53
2022-09-07T01:50:07.152Z,74.54
2022-09-07T01:52:59.887Z,74.58
2022-09-07T01:55:33.900Z,74.48
2022-09-07T01:58:11.080Z,74.47
2022-09-07T02:00:40.997Z,74.41
2022-09-07T02:03:14.130Z,74.23
2022-09-07T02:06:02.338Z,74.41
2022-09-07T02:08:32.530Z,74.14
2022-09-07T02:11:03.673Z,74.08
2022-09-07T02:13:34.088Z,73.97
2022-09-07T02:16:07.716Z,73.95
2022-09-07T02:18:38.618Z,74.02
2022-09-07T02:21:08.253Z,74.02
2022-09-07T02:23:50.915Z,73.86
2022-09-07T02:26:21.207Z,73.81
2022-09-07T02:28:48.869Z,73.78
2022-09-07T02:31:16.373Z,73.94
2022-09-07T02:33:44.017Z,73.83
2022-09-07T02:36:13.303Z,73.79
2022-09-07T02:38:41.097Z,73.92
2022-09-07T02:41:28.635Z,73.77
2022-09-07T02:43:56.750Z,73.69
2022-09-07T02:46:30.963Z,73.80
2022-09-07T02:49:10.760Z,73.79
2022-09-07T02:51:44.812Z,73.97
2022-09-07T02:54:21.582Z,73.79
2022-09-07T02:56:58.637Z,73.76
2022-09-07T02:59:50.040Z,74.01
2022-09-07T03:02:20.658Z,74.08
2022-09-07T03:04:54.540Z,73.82
2022-09-07T03:07:28.270Z,73.80
2022-09-07T03:09:56.991Z,73.81
2022-09-07T03:12:24.668Z,73.77
2022-09-07T03:14:52.164Z,73.66
2022-09-07T03:17:19.470Z,73.59
2022-09-07T03:19:47.025Z,73.52
2022-09-07T03:22:14.738Z,73.47
2022-09-07T03:24:42.924Z,73.48
2022-09-07T03:27:11.080Z,73.75
2022-09-07T03:29:41.833Z,73.66
2022-09-07T03:32:08.269Z,73.83
2022-09-07T03:34:35.866Z,73.79
2022-09-07T03:37:03.719Z,73.88
2022-09-07T03:39:31.658Z,73.89
2022-09-07T03:41:59.087Z,74.02
2022-09-07T03:44:26.587Z,74.01
2022-09-07T03:46:54.044Z,73.99
2022-09-07T03:49:21.569Z,74.05
2022-09-07T03:51:49.444Z,74.13
2022-09-07T03:54:16.887Z,74.18
2022-09-07T03:56:44.427Z,74.29
2022-09-07T03:59:11.970Z,74.40
2022-09-07T04:01:39.667Z,74.33
2022-09-07T04:04:07.325Z,74.32
2022-09-07T04:06:34.798Z,74.47
2022-09-07T04:09:04.478Z,74.46
2022-09-07T04:11:32.107Z,74.52
2022-09-07T04:13:59.944Z,74.49
2022-09-07T04:16:28.428Z,74.67
2022-09-07T04:18:57.121Z,74.79
2022-09-07T04:21:26.482Z,75.11
2022-09-07T04:23:54.022Z,74.79
2022-09-07T04:26:24.022Z,74.82
2022-09-07T04:28:52.444Z,74.93
2022-09-07T04:31:20.156Z,74.73
2022-09-07T04:33:48.733Z,75.11
2022-09-07T04:36:17.962Z,75.02
2022-09-07T04:38:45.811Z,74.91
2022-09-07T04:41:15.354Z,74.89
2022-09-07T04:43:43.646Z,74.82
2022-09-07T04:46:23.262Z,75.04
2022-09-07T04:48:52.056Z,75.10
2022-09-07T04:51:21.502Z,75.05
2022-09-07T04:53:51.075Z,75.05
2022-09-07T04:56:19.137Z,75.15
2022-09-07T04:58:47.165Z,75.23
2022-09-07T05:01:17.389Z,75.18
2022-09-07T05:03:45.830Z,75.26
2022-09-07T05:06:15.996Z,75.26
2022-09-07T05:08:45.966Z,75.24
2022-09-07T05:11:14.468Z,75.53
2022-09-07T05:13:42.254Z,75.74
2022-09-07T05:16:17.873Z,75.59
2022-09-07T05:18:49.405Z,75.73
2022-09-07T05:21:19.321Z,75.55
2022-09-07T05:23:49.054Z,75.91
2022-09-07T05:26:16.703Z,75.91
2022-09-07T05:28:44.298Z,75.85
2022-09-07T05:36:16.670Z,76.20
2022-09-07T05:38:44.186Z,76.39
2022-09-07T05:41:14.140Z,76.43
2022-09-07T05:46:12.514Z,76.68
2022-09-07T05:48:40.205Z,76.59
2022-09-07T05:51:08.240Z,76.98
2022-09-07T05:53:37.396Z,77.36
2022-09-07T05:56:10.348Z,77.23
2022-09-07T05:58:43.171Z,77.42
2022-09-07T06:01:13.003Z,77.48
2022-09-07T06:03:42.038Z,77.47
2022-09-07T06:06:12.618Z,77.42
2022-09-07T06:08:48.558Z,77.50
2022-09-07T06:11:18.169Z,77.55
2022-09-07T06:13:45.581Z,77.53
2022-09-07T06:16:13.813Z,77.49
2022-09-07T06:18:44.797Z,77.38
2022-09-07T06:21:14.662Z,77.49
2022-09-07T06:23:43.239Z,77.53
2022-09-07T06:26:13.102Z,77.67
2022-09-07T06:28:48.944Z,77.75
2022-09-07T06:31:17.363Z,77.81
2022-09-07T06:33:47.041Z,77.97
2022-09-07T06:36:20.341Z,77.87
2022-09-07T06:38:48.790Z,77.93
2022-09-07T06:43:53.961Z,77.70
2022-09-07T06:48:55.256Z,77.89
2022-09-07T06:51:29.046Z,77.94
2022-09-07T06:56:26.878Z,78.12
2022-09-07T06:58:54.778Z,78.16
2022-09-07T07:01:23.541Z,78.08
2022-09-07T07:03:52.567Z,78.28
2022-09-07T07:06:21.792Z,78.22
2022-09-07T07:08:52.814Z,78.42
2022-09-07T07:11:20.262Z,78.18
2022-09-07T07:13:47.777Z,78.19
2022-09-07T07:16:16.294Z,78.22
2022-09-07T07:18:44.532Z,78.12
2022-09-07T07:21:13.739Z,78.40
2022-09-07T07:23:41.879Z,78.17
2022-09-07T07:26:14.099Z,78.36
2022-09-07T07:31:25.102Z,77.64
2022-09-07T07:33:53.284Z,77.96
2022-09-07T07:36:22.752Z,77.96
2022-09-07T07:39:00.314Z,77.90
2022-09-07T07:44:00.523Z,78.11
2022-09-07T07:46:29.793Z,78.32
2022-09-07T07:48:58.113Z,78.21
2022-09-07T07:51:25.651Z,78.27
2022-09-07T07:53:54.064Z,78.27
2022-09-07T07:56:22.371Z,78.25
2022-09-07T07:58:51.763Z,78.23
2022-09-07T08:01:19.388Z,78.28
2022-09-07T08:03:47.382Z,78.33
2022-09-07T08:06:16.641Z,78.16
2022-09-07T08:08:45.028Z,78.27
2022-09-07T08:11:17.994Z,78.24
2022-09-07T08:13:47.400Z,78.12
2022-09-07T08:16:15.400Z,78.29
2022-09-07T08:18:46.984Z,78.48
2022-09-07T08:21:14.543Z,78.65
2022-09-07T08:23:43.242Z,78.04
2022-09-07T08:26:11.089Z,77.86
2022-09-07T08:28:40.038Z,78.06
2022-09-07T08:31:10.291Z,77.36
2022-09-07T08:33:38.951Z,75.92
2022-09-07T08:36:10.391Z,75.35
2022-09-07T08:38:38.315Z,73.37
2022-09-07T08:41:32.943Z,70.38
2022-09-07T08:44:02.958Z,70.96
2022-09-07T08:46:39.880Z,68.19
2022-09-07T08:49:20.200Z,67.64
2022-09-07T08:52:00.197Z,67.12
2022-09-07T08:54:27.590Z,63.79
2022-09-07T08:59:35.475Z,60.70
2022-09-07T09:04:32.413Z,62.32
2022-09-07T09:07:07.067Z,61.54
2022-09-07T09:09:51.214Z,61.74
2022-09-07T09:12:37.369Z,61.60
2022-09-07T09:15:11.386Z,61.07
2022-09-07T09:17:48.214Z,60.41
2022-09-07T09:20:28.278Z,59.51
2022-09-07T09:22:59.093Z,56.83
2022-09-07T09:25:33.406Z,57.56
2022-09-07T09:28:01.692Z,57.42
2022-09-07T09:30:29.211Z,56.10
2022-09-07T09:33:17.805Z,53.73
2022-09-07T09:35:50.403Z,54.66
2022-09-07T09:38:33.706Z,54.03
2022-09-07T09:41:07.142Z,54.64
2022-09-07T09:43:47.051Z,53.83
2022-09-07T09:46:35.674Z,54.98
2022-09-07T09:49:18.852Z,55.33
2022-09-07T09:54:30.175Z,52.59
2022-09-07T09:57:00.124Z,53.69
2022-09-07T10:04:34.812Z,52.81
2022-09-07T10:07:20.728Z,51.54
2022-09-07T10:09:50.715Z,51.05
2022-09-07T10:12:31.592Z,50.11
2022-09-07T10:15:00.742Z,50.85
2022-09-07T10:17:41.867Z,49.85
2022-09-07T10:20:40.334Z,50.54
2022-09-07T10:23:24.829Z,49.95
2022-09-07T10:25:55.121Z,50.07
2022-09-07T14:24:06.191Z,51.26
2022-09-07T14:26:34.190Z,51.57
2022-09-07T14:29:01.558Z,51.52
2022-09-07T14:31:30.046Z,51.42
2022-09-07T14:33:58.932Z,52.03
2022-09-07T14:36:44.294Z,51.84
2022-09-07T14:39:07.770Z,51.79
2022-09-07T14:41:31.589Z,51.83
2022-09-07T14:44:00.141Z,51.82
2022-09-07T14:46:35.608Z,52.14
2022-09-07T14:49:20.782Z,52.17
2022-09-07T14:51:48.705Z,52.91
2022-09-07T14:54:28.648Z,52.83
2022-09-07T14:57:11.387Z,53.28
2022-09-07T14:59:44.199Z,53.00
2022-09-07T15:02:24.383Z,53.20
2022-09-07T15:05:12.433Z,53.46
2022-09-07T15:07:44.996Z,53.49
2022-09-07T15:10:25.158Z,53.74
2022-09-07T15:12:57.363Z,53.61
2022-09-07T15:15:37.422Z,53.56
2022-09-07T15:18:09.310Z,54.02
2022-09-07T15:20:44.529Z,54.33
2022-09-07T15:23:13.864Z,54.71
2022-09-07T15:25:46.521Z,54.76
2022-09-07T15:29:18.353Z,55.17
2022-09-07T15:31:40.392Z,55.43
2022-09-07T15:33:21.645Z,55.57
2022-09-07T15:35:53.763Z,55.62
2022-09-07T15:41:18.537Z,56.31
2022-09-07T15:43:23.822Z,56.36
2022-09-07T15:45:51.356Z,56.77
2022-09-07T15:48:21.256Z,57.02
2022-09-07T15:50:48.992Z,57.11
2022-09-07T15:55:50.190Z,57.70
2022-09-07T15:58:17.948Z,57.83
2022-09-07T16:00:45.480Z,58.12
2022-09-07T16:03:13.212Z,58.15
2022-09-07T16:05:43.551Z,58.64
2022-09-07T16:08:27.612Z,58.80
2022-09-07T16:10:40.836Z,59.02
2022-09-07T16:13:16.404Z,59.26
2022-09-07T16:15:45.165Z,59.53
2022-09-07T16:18:16.441Z,59.78
2022-09-07T16:20:43.340Z,59.80
2022-09-07T16:23:14.001Z,59.94
2022-09-07T16:25:42.818Z,60.47
2022-09-07T16:28:10.846Z,60.45
2022-09-07T16:30:39.835Z,60.47
2022-09-07T16:33:08.039Z,60.73
2022-09-07T16:35:35.511Z,60.90
2022-09-07T16:40:34.659Z,61.35
2022-09-07T16:43:02.281Z,61.74
2022-09-07T16:47:58.821Z,62.18
2022-09-07T16:50:26.450Z,62.60
2022-09-07T16:52:53.886Z,62.79
2022-09-07T16:55:21.205Z,63.09
2022-09-07T17:00:18.146Z,63.61
2022-09-07T17:02:45.662Z,64.09
2022-09-07T17:05:13.045Z,64.22
2022-09-07T17:07:40.573Z,64.47
2022-09-07T17:10:08.415Z,64.25
2022-09-07T17:12:38.627Z,64.76
2022-09-07T17:15:11.273Z,64.82
2022-09-07T17:17:39.100Z,65.14
2022-09-07T17:20:12.062Z,65.50
2022-09-07T17:22:44.575Z,65.79
2022-09-07T17:25:14.157Z,66.66
2022-09-07T17:27:43.900Z,67.09
2022-09-07T17:30:11.500Z,67.35
2022-09-07T17:32:39.278Z,67.63
2022-09-07T17:35:07.586Z,67.95
2022-09-07T17:37:34.997Z,68.29
2022-09-07T17:40:05.824Z,68.24
2022-09-07T17:45:08.053Z,68.46
2022-09-07T17:47:37.387Z,69.34
2022-09-07T17:50:05.312Z,69.29
2022-09-07T17:52:38.696Z,69.72
2022-09-07T17:55:06.250Z,70.03
2022-09-07T17:57:34.345Z,69.88
2022-09-07T18:00:12.217Z,70.69
2022-09-07T18:02:35.635Z,70.26
2022-09-07T18:05:03.413Z,70.81
2022-09-07T18:07:32.248Z,70.79
2022-09-07T18:10:00.182Z,70.97
2022-09-07T18:12:27.488Z,71.18
2022-09-07T18:14:54.557Z,71.32
2022-09-07T18:17:21.803Z,71.45
2022-09-07T18:19:49.076Z,71.63
2022-09-07T18:22:16.388Z,71.70
2022-09-07T18:24:43.823Z,71.83
2022-09-07T18:27:10.957Z,72.10
2022-09-07T18:29:38.519Z,72.08
2022-09-07T18:32:08.491Z,72.28
2022-09-07T18:34:37.800Z,72.74
2022-09-07T18:37:07.560Z,72.53
2022-09-07T18:39:45.591Z,72.81
2022-09-07T18:42:13.424Z,72.83
2022-09-07T18:47:14.304Z,73.20
2022-09-07T18:49:40.632Z,73.34
2022-09-07T18:54:43.320Z,73.39
2022-09-07T18:57:15.902Z,73.64
2022-09-07T18:59:45.804Z,73.82
2022-09-07T19:02:15.545Z,73.73
2022-09-07T19:07:19.898Z,74.25
2022-09-07T19:09:49.921Z,74.05
2022-09-07T19:12:20.596Z,74.56
2022-09-07T19:14:48.418Z,74.89
2022-09-07T19:17:19.453Z,75.36
2022-09-07T19:19:49.307Z,75.10
2022-09-07T19:22:19.183Z,75.30
2022-09-07T19:24:46.853Z,74.99
2022-09-07T19:27:16.486Z,75.39
2022-09-07T19:29:45.971Z,75.40
2022-09-07T19:32:13.699Z,75.85
2022-09-07T19:34:47.086Z,76.22
2022-09-07T19:37:17.910Z,76.10
2022-09-07T19:39:47.687Z,76.13
2022-09-07T19:42:16.996Z,76.27
2022-09-07T19:44:46.882Z,76.30
2022-09-07T19:47:14.873Z,76.36
2022-09-07T19:49:44.305Z,76.32
2022-09-07T19:52:15.249Z,76.50
2022-09-07T19:54:43.272Z,76.59
2022-09-07T19:57:10.620Z,76.62
2022-09-07T19:59:39.281Z,76.66
2022-09-07T20:02:08.507Z,76.77
2022-09-07T20:04:36.058Z,76.75
2022-09-07T20:07:03.700Z,76.80
2022-09-07T20:09:31.391Z,76.99
2022-09-07T20:12:00.757Z,77.01
2022-09-07T20:14:28.776Z,77.11
2022-09-07T20:16:56.901Z,77.12
2022-09-07T20:19:24.571Z,77.18
2022-09-07T20:21:54.017Z,77.19
2022-09-07T20:24:22.243Z,77.05
2022-09-07T20:26:49.597Z,77.21
2022-09-07T20:29:27.423Z,77.25
2022-09-07T20:31:46.413Z,77.19
2022-09-07T20:34:14.140Z,77.37
2022-09-07T20:36:41.604Z,77.41
2022-09-07T20:39:13.384Z,77.53
2022-09-07T20:41:40.730Z,77.62
2022-09-07T20:44:09.011Z,77.52
2022-09-07T20:46:36.810Z,77.54
2022-09-07T20:49:04.903Z,77.36
2022-09-07T20:51:32.377Z,77.73
2022-09-07T20:53:59.830Z,77.66
2022-09-07T20:56:29.974Z,77.83
2022-09-07T20:59:02.289Z,77.84
2022-09-07T21:01:31.413Z,78.02
2022-09-07T21:04:00.109Z,78.10
2022-09-07T21:06:28.739Z,78.19
2022-09-07T21:08:59.769Z,78.23
2022-09-07T21:11:29.596Z,78.20
2022-09-07T21:13:59.181Z,78.31
2022-09-07T21:16:27.374Z,78.53
2022-09-07T21:18:56.626Z,78.44
2022-09-07T21:21:24.552Z,78.55
2022-09-07T21:23:59.953Z,78.67
2022-09-07T21:26:28.162Z,78.77
2022-09-07T21:29:00.243Z,78.82
2022-09-07T21:31:29.514Z,78.80
2022-09-07T21:33:59.791Z,78.90
2022-09-07T21:36:28.130Z,78.96
2022-09-07T21:38:56.242Z,78.94
2022-09-07T21:41:24.674Z,78.94
2022-09-07T21:44:00.341Z,78.85
2022-09-07T21:46:29.995Z,79.03
2022-09-07T21:48:58.279Z,79.17
2022-09-07T21:51:27.027Z,79.25
2022-09-07T21:53:56.152Z,79.11
2022-09-07T21:56:24.389Z,79.07
2022-09-07T21:58:57.619Z,79.46
2022-09-07T22:01:27.075Z,79.44
2022-09-07T22:03:57.650Z,79.36
2022-09-07T22:06:27.473Z,79.53
2022-09-07T22:08:55.472Z,79.56
2022-09-07T22:11:24.843Z,79.48
2022-09-07T22:13:57.308Z,79.61
2022-09-07T22:16:25.231Z,79.72
2022-09-07T22:18:52.823Z,79.72
2022-09-07T22:21:23.516Z,79.90
2022-09-07T22:23:53.929Z,79.86
2022-09-07T22:26:23.519Z,79.89
2022-09-07T22:28:50.912Z,79.88
2022-09-07T22:31:21.076Z,80.30
2022-09-07T22:33:50.338Z,80.24
2022-09-07T22:36:20.669Z,80.18
2022-09-07T22:38:50.568Z,80.23
2022-09-07T22:41:20.348Z,80.41
2022-09-07T22:43:50.272Z,80.25
2022-09-07T22:46:20.037Z,80.35
2022-09-07T22:48:47.817Z,80.46
2022-09-07T22:51:16.216Z,80.72
2022-09-07T22:53:44.373Z,80.60
2022-09-07T22:56:14.724Z,80.72
2022-09-07T22:59:00.212Z,80.61
2022-09-07T23:01:29.535Z,80.66
2022-09-07T23:03:57.403Z,80.92
2022-09-07T23:06:27.418Z,80.90
2022-09-07T23:08:56.411Z,81.20
2022-09-07T23:11:24.484Z,81.08
2022-09-07T23:13:56.464Z,81.14
2022-09-07T23:16:24.270Z,81.07
2022-09-07T23:18:51.666Z,81.14
2022-09-07T23:21:18.956Z,81.24
2022-09-07T23:23:53.834Z,81.60
2022-09-07T23:26:22.376Z,81.31
2022-09-07T23:28:54.097Z,81.22
2022-09-07T23:31:22.257Z,81.46
2022-09-07T23:33:50.211Z,81.43
2022-09-07T23:36:18.443Z,81.58
2022-09-07T23:38:46.470Z,81.35
2022-09-07T23:41:14.409Z,81.37
2022-09-07T23:43:42.075Z,81.31
2022-09-07T23:46:11.123Z,81.29
2022-09-07T23:48:38.444Z,81.43
2022-09-07T23:51:06.027Z,81.39
2022-09-07T23:53:33.842Z,81.56
2022-09-07T23:56:01.463Z,81.41
2022-09-07T23:58:30.099Z,81.51
